createdAt,value
2023-04-29T00:01:26.210Z,2.47
2023-04-29T00:03:53.752Z,2.20
2023-04-29T00:06:21.916Z,2.40
2023-04-29T00:08:49.202Z,2.20
2023-04-29T00:11:16.374Z,2.13
2023-04-29T00:13:43.530Z,2.30
2023-04-29T00:16:10.577Z,2.10
2023-04-29T00:18:38.116Z,2.17
2023-04-29T00:21:06.391Z,1.98
2023-04-29T00:23:36.346Z,2.37
2023-04-29T00:26:03.777Z,2.00
2023-04-29T00:28:30.740Z,2.00
2023-04-29T00:30:58.360Z,2.20
2023-04-29T00:33:25.455Z,2.20
2023-04-29T00:35:52.804Z,2.58
2023-04-29T00:38:21.484Z,2.80
2023-04-29T00:40:48.545Z,2.75
2023-04-29T00:43:15.381Z,2.38
2023-04-29T00:45:42.396Z,2.30
2023-04-29T00:48:09.446Z,2.20
2023-04-29T00:50:36.949Z,1.92
2023-04-29T00:53:04.199Z,1.90
2023-04-29T00:55:31.446Z,2.20
2023-04-29T00:57:58.466Z,2.00
2023-04-29T01:00:26.413Z,1.88
2023-04-29T01:02:54.529Z,2.00
2023-04-29T01:05:21.442Z,2.00
2023-04-29T01:08:19.382Z,1.95
2023-04-29T01:10:53.680Z,2.00
2023-04-29T01:13:50.590Z,1.90
2023-04-29T01:17:03.738Z,2.03
2023-04-29T01:19:46.007Z,1.90
2023-04-29T01:22:15.023Z,2.00
2023-04-29T01:24:41.997Z,1.67
2023-04-29T01:27:24.236Z,1.90
2023-04-29T01:30:09.054Z,2.10
2023-04-29T01:32:44.658Z,2.30
2023-04-29T01:35:13.551Z,2.20
2023-04-29T01:38:00.844Z,2.10
2023-04-29T01:40:34.874Z,2.03
2023-04-29T01:43:04.655Z,2.30
2023-04-29T01:45:32.934Z,2.20
2023-04-29T01:48:00.330Z,2.13
2023-04-29T01:50:27.321Z,2.08
2023-04-29T01:52:54.252Z,2.00
2023-04-29T01:55:22.211Z,2.15
2023-04-29T01:57:49.294Z,2.03
2023-04-29T02:00:16.505Z,2.20
2023-04-29T02:02:43.686Z,2.10
2023-04-29T02:05:11.388Z,2.20
2023-04-29T02:07:38.439Z,2.13
2023-04-29T02:10:06.165Z,2.30
2023-04-29T02:12:33.129Z,2.17
2023-04-29T02:15:00.599Z,2.08
2023-04-29T02:17:27.915Z,2.35
2023-04-29T02:19:55.427Z,2.30
2023-04-29T02:22:22.402Z,2.10
2023-04-29T02:24:49.387Z,1.83
2023-04-29T02:27:16.286Z,2.38
2023-04-29T02:29:43.327Z,2.00
2023-04-29T02:32:10.440Z,1.73
2023-04-29T02:34:37.348Z,1.80
2023-04-29T02:37:04.975Z,1.80
2023-04-29T02:39:31.779Z,1.83
2023-04-29T02:41:58.851Z,1.98
2023-04-29T02:44:26.228Z,1.60
2023-04-29T02:46:53.052Z,1.83
2023-04-29T02:49:19.989Z,1.90
2023-04-29T02:51:47.183Z,2.00
2023-04-29T02:54:14.017Z,1.70
2023-04-29T02:56:41.000Z,1.65
2023-04-29T02:59:07.870Z,1.80
2023-04-29T03:01:34.818Z,1.70
2023-04-29T03:04:02.060Z,1.67
2023-04-29T03:06:29.298Z,1.60
2023-04-29T03:08:57.155Z,1.38
2023-04-29T03:11:26.752Z,1.40
2023-04-29T03:13:54.567Z,1.38
2023-04-29T03:16:22.361Z,1.40
2023-04-29T03:18:49.972Z,1.40
2023-04-29T03:21:18.014Z,1.30
2023-04-29T03:23:45.064Z,1.50
2023-04-29T03:26:12.339Z,1.60
2023-04-29T03:28:39.525Z,1.50
2023-04-29T03:31:06.434Z,1.45
2023-04-29T03:33:33.501Z,1.60
2023-04-29T03:36:00.495Z,1.50
2023-04-29T03:38:27.375Z,1.83
2023-04-29T03:40:54.406Z,1.70
2023-04-29T03:43:21.330Z,1.60
2023-04-29T03:45:48.262Z,1.65
2023-04-29T03:48:15.300Z,1.55
2023-04-29T03:50:42.185Z,1.60
2023-04-29T03:53:09.146Z,1.70
2023-04-29T03:55:36.249Z,1.40
2023-04-29T03:58:03.369Z,1.45
2023-04-29T04:00:31.653Z,1.60
2023-04-29T04:02:59.253Z,1.48
2023-04-29T04:05:26.818Z,1.50
2023-04-29T04:07:54.047Z,1.50
2023-04-29T04:10:20.991Z,1.60
2023-04-29T04:12:48.010Z,1.50
2023-04-29T04:15:15.476Z,1.33
2023-04-29T04:17:42.502Z,1.50
2023-04-29T04:20:09.945Z,1.65
2023-04-29T04:22:36.905Z,1.50
2023-04-29T04:25:04.955Z,1.60
2023-04-29T04:27:31.832Z,1.80
2023-04-29T04:29:58.705Z,1.55
2023-04-29T04:32:26.126Z,1.65
2023-04-29T04:34:53.061Z,1.73
2023-04-29T04:37:19.961Z,1.60
2023-04-29T04:39:47.468Z,1.30
2023-04-29T04:42:14.326Z,1.45
2023-04-29T04:44:41.257Z,1.40
2023-04-29T04:47:08.275Z,1.58
2023-04-29T04:49:35.242Z,1.30
2023-04-29T04:52:02.136Z,1.58
2023-04-29T04:54:29.077Z,1.42
2023-04-29T04:56:56.097Z,1.50
2023-04-29T04:59:23.148Z,1.50
2023-04-29T05:01:50.012Z,1.40
2023-04-29T05:04:17.174Z,1.40
2023-04-29T05:06:44.284Z,1.10
2023-04-29T05:09:12.007Z,1.25
2023-04-29T05:11:38.899Z,1.23
2023-04-29T05:14:05.751Z,1.35
2023-04-29T05:16:32.651Z,1.65
2023-04-29T05:18:59.595Z,1.30
2023-04-29T05:21:26.539Z,1.20
2023-04-29T05:23:53.400Z,1.20
2023-04-29T05:26:20.195Z,1.05
2023-04-29T05:28:47.210Z,1.17
2023-04-29T05:31:14.264Z,1.80
2023-04-29T05:33:41.163Z,1.35
2023-04-29T05:36:08.290Z,1.58
2023-04-29T05:38:35.199Z,1.20
2023-04-29T05:41:02.792Z,1.05
2023-04-29T05:43:30.045Z,0.93
2023-04-29T05:45:56.957Z,1.20
2023-04-29T05:48:25.088Z,1.10
2023-04-29T05:50:52.317Z,1.10
2023-04-29T05:53:19.184Z,1.00
2023-04-29T05:55:47.970Z,1.00
2023-04-29T05:58:15.638Z,1.20
2023-04-29T06:00:44.175Z,1.10
2023-04-29T06:03:12.419Z,1.30
2023-04-29T06:05:39.781Z,1.23
2023-04-29T06:08:07.337Z,1.10
2023-04-29T06:10:34.632Z,1.17
2023-04-29T06:13:01.516Z,1.17
2023-04-29T06:15:28.577Z,1.10
2023-04-29T06:17:55.696Z,1.50
2023-04-29T06:20:22.561Z,1.60
2023-04-29T06:22:49.641Z,1.60
2023-04-29T06:25:16.685Z,1.27
2023-04-29T06:27:43.568Z,1.35
2023-04-29T06:30:11.719Z,1.05
2023-04-29T06:32:40.001Z,1.25
2023-04-29T06:35:07.491Z,1.23
2023-04-29T06:37:36.361Z,1.58
2023-04-29T06:40:05.936Z,1.33
2023-04-29T06:42:32.899Z,1.20
2023-04-29T06:45:00.118Z,1.30
2023-04-29T06:47:27.486Z,1.30
2023-04-29T06:49:54.990Z,1.30
2023-04-29T06:52:22.158Z,1.50
2023-04-29T06:54:49.013Z,1.48
2023-04-29T06:57:15.951Z,1.30
2023-04-29T06:59:43.067Z,1.48
2023-04-29T07:02:09.866Z,1.20
2023-04-29T07:04:37.758Z,1.30
2023-04-29T07:07:04.901Z,1.35
2023-04-29T07:09:31.843Z,1.45
2023-04-29T07:11:58.708Z,1.45
2023-04-29T07:14:26.069Z,1.55
2023-04-29T07:16:56.176Z,1.48
2023-04-29T07:19:23.188Z,1.40
2023-04-29T07:21:50.023Z,1.30
2023-04-29T07:24:17.430Z,1.20
2023-04-29T07:26:47.774Z,1.15
2023-04-29T07:29:14.753Z,1.30
2023-04-29T07:31:41.813Z,1.30
2023-04-29T07:34:08.716Z,1.40
2023-04-29T07:36:35.798Z,1.30
2023-04-29T07:39:02.854Z,1.30
2023-04-29T07:41:29.665Z,1.10
2023-04-29T07:43:56.551Z,1.42
2023-04-29T07:46:23.756Z,1.33
2023-04-29T07:48:50.995Z,1.40
2023-04-29T07:51:17.979Z,1.40
2023-04-29T07:53:44.820Z,1.50
2023-04-29T07:56:11.715Z,1.48
2023-04-29T07:58:38.720Z,1.20
2023-04-29T08:01:10.442Z,1.52
2023-04-29T08:03:40.761Z,1.50
2023-04-29T08:06:08.992Z,1.25
2023-04-29T08:08:36.244Z,2.15
2023-04-29T08:11:03.409Z,1.65
2023-04-29T08:13:30.723Z,2.20
2023-04-29T08:15:57.684Z,2.10
2023-04-29T08:18:24.858Z,1.58
2023-04-29T08:20:51.757Z,2.15
2023-04-29T08:23:18.837Z,1.80
2023-04-29T08:25:45.815Z,1.50
2023-04-29T08:28:13.445Z,1.80
2023-04-29T08:30:43.352Z,1.90
2023-04-29T08:33:10.462Z,1.58
2023-04-29T08:35:38.161Z,1.08
2023-04-29T08:38:06.841Z,1.25
2023-04-29T08:40:37.379Z,1.60
2023-04-29T08:43:05.519Z,1.38
2023-04-29T08:45:32.783Z,1.20
2023-04-29T08:48:01.081Z,1.50
2023-04-29T08:50:28.755Z,1.40
2023-04-29T08:52:56.629Z,0.95
2023-04-29T08:55:23.548Z,1.60
2023-04-29T09:00:17.452Z,1.58
2023-04-29T09:02:47.782Z,1.80
2023-04-29T09:05:14.798Z,1.00
2023-04-29T09:07:42.087Z,1.58
2023-04-29T09:10:09.311Z,1.50
2023-04-29T09:12:36.350Z,1.70
2023-04-29T09:15:03.702Z,1.10
2023-04-29T09:17:47.510Z,0.80
2023-04-29T09:20:20.390Z,0.73
2023-04-29T09:22:50.967Z,0.60
2023-04-29T09:25:17.927Z,0.80
2023-04-29T09:27:44.998Z,1.10
2023-04-29T09:30:16.823Z,1.10
2023-04-29T09:32:45.920Z,0.80
2023-04-29T09:35:25.514Z,0.82
2023-04-29T09:37:56.221Z,0.75
2023-04-29T09:40:30.990Z,1.00
2023-04-29T09:42:58.933Z,0.90
2023-04-29T09:45:37.062Z,0.75
2023-04-29T09:48:05.290Z,0.93
2023-04-29T09:50:34.229Z,0.80
2023-04-29T09:53:01.154Z,0.88
2023-04-29T09:55:28.442Z,0.80
2023-04-29T09:57:56.276Z,0.60
2023-04-29T10:00:23.272Z,1.00
2023-04-29T10:02:52.125Z,0.88
2023-04-29T10:05:19.315Z,0.80
2023-04-29T10:07:47.539Z,1.20
2023-04-29T10:10:14.749Z,1.05
2023-04-29T10:12:42.121Z,0.80
2023-04-29T10:15:24.073Z,0.90
2023-04-29T10:17:55.551Z,0.80
2023-04-29T10:20:23.795Z,0.90
2023-04-29T10:22:52.044Z,0.93
2023-04-29T10:27:47.282Z,1.00
2023-04-29T10:30:15.358Z,0.82
2023-04-29T10:32:51.008Z,1.00
2023-04-29T10:35:20.836Z,0.57
2023-04-29T10:37:49.158Z,0.77
2023-04-29T10:42:52.655Z,0.90
2023-04-29T10:45:32.037Z,0.80
2023-04-29T10:48:10.896Z,1.10
2023-04-29T10:50:49.992Z,0.68
2023-04-29T10:53:22.492Z,1.00
2023-04-29T10:56:00.342Z,0.88
2023-04-29T10:58:36.393Z,1.10
2023-04-29T11:01:03.806Z,1.25
2023-04-29T11:03:51.046Z,1.30
2023-04-29T11:06:18.187Z,1.40
2023-04-29T11:08:45.224Z,1.50
2023-04-29T11:11:14.649Z,1.42
2023-04-29T11:13:41.937Z,1.60
2023-04-29T11:16:09.377Z,1.63
2023-04-29T11:18:37.546Z,1.50
2023-04-29T11:21:07.423Z,1.70
2023-04-29T11:23:35.287Z,1.60
2023-04-29T11:26:02.436Z,1.80
2023-04-29T11:28:30.749Z,1.63
2023-04-29T11:30:58.303Z,1.70
2023-04-29T11:33:27.586Z,1.33
2023-04-29T11:35:54.961Z,1.63
2023-04-29T11:38:28.587Z,1.43
2023-04-29T11:40:58.605Z,1.67
2023-04-29T11:43:25.664Z,1.60
2023-04-29T11:45:53.293Z,1.45
2023-04-29T11:48:24.544Z,1.60
2023-04-29T11:50:58.130Z,1.60
2023-04-29T11:53:28.033Z,1.50
2023-04-29T11:55:55.842Z,1.50
2023-04-29T11:58:23.461Z,1.50
2023-04-29T12:00:50.907Z,1.40
2023-04-29T12:03:20.100Z,1.37
2023-04-29T12:05:54.587Z,1.60
2023-04-29T12:08:26.229Z,1.50
2023-04-29T12:10:54.768Z,1.50
2023-04-29T12:13:21.568Z,1.65
2023-04-29T12:15:49.199Z,1.75
2023-04-29T12:18:21.187Z,1.60
2023-04-29T12:20:56.135Z,2.03
2023-04-29T12:23:24.673Z,1.90
2023-04-29T12:25:52.145Z,1.95
2023-04-29T12:28:19.669Z,1.90
2023-04-29T12:30:52.006Z,2.00
2023-04-29T12:33:23.204Z,1.85
2023-04-29T12:35:51.819Z,1.90
2023-04-29T12:38:36.650Z,1.90
2023-04-29T12:41:04.546Z,1.90
2023-04-29T12:43:33.850Z,1.80
2023-04-29T12:46:04.902Z,1.40
2023-04-29T12:48:33.562Z,1.77
2023-04-29T12:51:01.833Z,1.60
2023-04-29T12:53:32.087Z,1.90
2023-04-29T12:55:59.029Z,1.90
2023-04-29T12:58:29.568Z,1.80
2023-04-29T13:00:57.457Z,2.00
2023-04-29T13:05:55.137Z,1.88
2023-04-29T13:08:23.208Z,1.90
2023-04-29T13:10:50.423Z,1.85
2023-04-29T13:13:17.584Z,2.17
2023-04-29T13:15:44.519Z,1.90
2023-04-29T13:18:11.514Z,1.77
2023-04-29T13:20:42.030Z,2.10
2023-04-29T13:23:10.347Z,1.90
2023-04-29T13:25:37.197Z,2.13
2023-04-29T13:28:05.905Z,1.70
2023-04-29T13:30:33.468Z,1.90
2023-04-29T13:33:09.254Z,1.63
2023-04-29T13:35:40.547Z,2.08
2023-04-29T13:38:08.542Z,1.83
2023-04-29T13:40:39.525Z,2.00
2023-04-29T13:43:15.009Z,2.03
2023-04-29T13:45:46.454Z,1.65
2023-04-29T13:48:37.377Z,1.88
2023-04-29T13:56:58.194Z,1.70
2023-04-29T14:03:50.369Z,1.45
2023-04-29T14:06:17.301Z,1.75
2023-04-29T14:08:44.745Z,1.52
2023-04-29T14:11:11.714Z,1.70
2023-04-29T14:13:38.790Z,1.42
2023-04-29T14:16:07.260Z,1.48
2023-04-29T14:18:34.129Z,1.50
2023-04-29T14:21:01.188Z,1.65
2023-04-29T14:23:28.051Z,1.52
2023-04-29T14:26:02.257Z,1.65
2023-04-29T14:28:38.427Z,1.70
2023-04-29T14:31:05.397Z,1.70
2023-04-29T14:33:32.358Z,1.80
2023-04-29T14:36:01.161Z,1.70
2023-04-29T14:38:28.082Z,1.90
2023-04-29T14:40:54.993Z,1.85
2023-04-29T14:43:21.843Z,1.90
2023-04-29T14:45:48.922Z,2.00
2023-04-29T14:48:15.879Z,1.90
2023-04-29T14:50:42.768Z,1.90
2023-04-29T14:53:10.552Z,2.10
2023-04-29T14:55:37.396Z,2.20
2023-04-29T14:58:05.156Z,2.25
2023-04-29T15:00:32.161Z,2.08
2023-04-29T15:02:59.312Z,2.13
2023-04-29T15:05:26.560Z,2.10
2023-04-29T15:07:53.807Z,2.20
2023-04-29T15:10:20.821Z,2.40
2023-04-29T15:12:47.810Z,2.00
2023-04-29T15:15:14.742Z,2.10
2023-04-29T15:17:41.742Z,2.10
2023-04-29T15:20:09.983Z,2.08
2023-04-29T15:22:37.410Z,1.90
2023-04-29T15:25:04.673Z,2.10
2023-04-29T15:27:31.475Z,2.10
2023-04-29T15:29:58.882Z,2.08
2023-04-29T15:32:31.711Z,2.40
2023-04-29T15:35:02.559Z,2.05
2023-04-29T15:37:29.597Z,2.28
2023-04-29T15:39:59.001Z,2.20
2023-04-29T15:42:25.858Z,2.42
2023-04-29T15:44:53.053Z,2.45
2023-04-29T15:47:20.116Z,2.80
2023-04-29T15:49:47.139Z,2.30
2023-04-29T15:52:14.143Z,2.50
2023-04-29T15:54:41.737Z,2.25
2023-04-29T15:57:08.700Z,2.40
2023-04-29T15:59:35.608Z,2.40
2023-04-29T16:02:04.143Z,2.30
2023-04-29T16:04:32.042Z,2.30
2023-04-29T16:06:58.909Z,2.30
2023-04-29T16:09:26.152Z,2.35
2023-04-29T16:11:53.864Z,2.00
2023-04-29T16:14:20.753Z,2.10
2023-04-29T16:16:48.140Z,2.28
2023-04-29T16:19:15.030Z,2.30
2023-04-29T16:21:45.741Z,2.20
2023-04-29T16:24:13.672Z,2.30
2023-04-29T16:26:43.499Z,2.30
2023-04-29T16:29:12.558Z,2.40
2023-04-29T16:31:40.240Z,2.60
2023-04-29T16:34:07.292Z,2.45
2023-04-29T16:36:34.790Z,3.17
2023-04-29T16:39:04.499Z,2.88
2023-04-29T16:41:32.488Z,2.67
2023-04-29T16:43:59.404Z,2.20
2023-04-29T16:46:26.384Z,2.15
2023-04-29T16:48:56.895Z,2.25
2023-04-29T16:51:26.899Z,2.80
2023-04-29T16:53:53.936Z,2.40
2023-04-29T16:56:22.042Z,2.50
2023-04-29T16:58:49.089Z,2.55
2023-04-29T17:01:16.147Z,2.58
2023-04-29T17:03:43.168Z,2.35
2023-04-29T17:06:10.097Z,2.20
2023-04-29T17:08:37.060Z,2.10
2023-04-29T17:11:03.871Z,2.22
2023-04-29T17:13:31.276Z,2.28
2023-04-29T17:15:58.255Z,2.25
2023-04-29T17:18:25.121Z,2.42
2023-04-29T17:20:52.216Z,2.17
2023-04-29T17:23:19.074Z,2.45
2023-04-29T17:25:46.146Z,2.50
2023-04-29T17:28:13.092Z,2.35
2023-04-29T17:30:39.945Z,2.88
2023-04-29T17:33:07.324Z,2.72
2023-04-29T17:35:34.388Z,2.70
2023-04-29T17:38:01.411Z,2.90
2023-04-29T17:40:28.501Z,2.97
2023-04-29T17:42:55.374Z,2.88
2023-04-29T17:45:22.511Z,2.60
2023-04-29T17:47:49.497Z,2.80
2023-04-29T17:50:16.453Z,2.80
2023-04-29T17:52:43.351Z,2.70
2023-04-29T17:55:10.863Z,2.90
2023-04-29T17:57:41.336Z,4.20
2023-04-29T18:00:09.323Z,6.35
2023-04-29T18:02:37.409Z,3.92
2023-04-29T18:05:04.552Z,4.90
2023-04-29T18:07:31.704Z,4.55
2023-04-29T18:09:58.726Z,4.90
2023-04-29T18:12:26.136Z,4.80
2023-04-29T18:14:53.205Z,5.50
2023-04-29T18:17:20.160Z,5.43
2023-04-29T18:19:49.919Z,5.93
2023-04-29T18:22:17.219Z,5.07
2023-04-29T18:24:44.302Z,5.47
2023-04-29T18:27:11.149Z,5.95
2023-04-29T18:29:38.123Z,4.78
2023-04-29T18:32:07.866Z,5.20
2023-04-29T18:34:35.270Z,5.03
2023-04-29T18:37:02.233Z,5.38
2023-04-29T18:39:29.109Z,5.57
2023-04-29T18:41:56.226Z,5.00
2023-04-29T18:44:23.135Z,5.55
2023-04-29T18:46:50.233Z,5.10
2023-04-29T18:49:18.285Z,4.80
2023-04-29T18:51:47.904Z,5.18
2023-04-29T18:54:16.044Z,5.00
2023-04-29T18:56:47.348Z,5.28
2023-04-29T18:59:19.799Z,5.60
2023-04-29T19:01:47.915Z,4.82
2023-04-29T19:04:15.899Z,5.10
2023-04-29T19:06:43.271Z,4.75
2023-04-29T19:09:11.671Z,5.20
2023-04-29T19:11:38.679Z,5.60
2023-04-29T19:14:06.187Z,5.90
2023-04-29T19:16:35.480Z,5.63
2023-04-29T19:19:04.574Z,6.05
2023-04-29T19:21:34.973Z,5.90
2023-04-29T19:24:01.978Z,5.68
2023-04-29T19:26:30.279Z,6.22
2023-04-29T19:28:58.688Z,6.43
2023-04-29T19:31:25.725Z,6.45
2023-04-29T19:33:52.617Z,6.10
2023-04-29T19:36:19.513Z,6.60
2023-04-29T19:38:47.284Z,5.80
2023-04-29T19:41:14.186Z,6.30
2023-04-29T19:43:41.180Z,6.18
2023-04-29T19:46:08.220Z,5.45
2023-04-29T19:48:35.524Z,6.20
2023-04-29T19:51:02.378Z,6.40
2023-04-29T19:53:30.236Z,5.93
2023-04-29T19:55:57.196Z,5.93
2023-04-29T19:58:24.757Z,6.60
2023-04-29T20:00:51.602Z,6.18
2023-04-29T20:03:18.713Z,5.53
2023-04-29T20:05:45.784Z,5.47
2023-04-29T20:08:12.613Z,5.65
2023-04-29T20:10:39.706Z,5.57
2023-04-29T20:13:06.704Z,6.30
2023-04-29T20:15:34.718Z,5.90
2023-04-29T20:18:02.396Z,6.35
2023-04-29T20:20:29.377Z,6.00
2023-04-29T20:22:58.676Z,6.18
2023-04-29T20:27:57.832Z,5.80
2023-04-29T20:30:26.414Z,6.82
2023-04-29T20:32:53.470Z,6.85
2023-04-29T20:35:21.380Z,6.78
2023-04-29T20:37:48.453Z,7.65
2023-04-29T20:40:15.426Z,6.68
2023-04-29T20:42:42.292Z,7.30
2023-04-29T20:45:09.804Z,7.07
2023-04-29T20:47:36.783Z,6.80
2023-04-29T20:50:05.006Z,6.13
2023-04-29T20:52:32.058Z,6.15
2023-04-29T20:54:59.115Z,6.65
2023-04-29T20:57:26.558Z,6.28
2023-04-29T20:59:54.165Z,7.32
2023-04-29T21:02:21.609Z,6.80
2023-04-29T21:04:48.743Z,7.50
2023-04-29T21:07:15.852Z,7.15
2023-04-29T21:09:42.726Z,6.63
2023-04-29T21:12:09.728Z,7.20
2023-04-29T21:14:38.260Z,7.72
2023-04-29T21:17:06.077Z,7.43
2023-04-29T21:19:36.172Z,8.48
2023-04-29T21:22:03.279Z,8.20
2023-04-29T21:24:31.637Z,8.52
2023-04-29T21:26:58.441Z,7.93
2023-04-29T21:29:25.482Z,7.75
2023-04-29T21:31:52.442Z,8.98
2023-04-29T21:34:19.326Z,9.48
2023-04-29T21:36:46.187Z,9.27
2023-04-29T21:39:13.131Z,8.88
2023-04-29T21:41:40.099Z,8.57
2023-04-29T21:44:07.277Z,9.00
2023-04-29T21:46:34.295Z,8.60
2023-04-29T21:49:01.739Z,9.00
2023-04-29T21:51:29.020Z,8.98
2023-04-29T21:53:55.891Z,9.35
2023-04-29T21:56:24.758Z,9.63
2023-04-29T21:58:51.831Z,8.35
2023-04-29T22:01:40.952Z,9.30
2023-04-29T22:06:34.908Z,7.53
2023-04-29T22:09:02.853Z,8.68
2023-04-29T22:11:29.839Z,8.30
2023-04-29T22:13:56.678Z,8.82
2023-04-29T22:16:23.762Z,7.97
2023-04-29T22:18:51.605Z,7.55
2023-04-29T22:21:19.072Z,8.40
2023-04-29T22:23:46.360Z,8.07
2023-04-29T22:26:13.260Z,7.53
2023-04-29T22:28:40.225Z,7.57
2023-04-29T22:31:07.172Z,8.20
2023-04-29T22:33:35.178Z,7.35
2023-04-29T22:36:02.548Z,6.90
2023-04-29T22:38:29.917Z,7.22
2023-04-29T22:40:56.762Z,7.55
2023-04-29T22:43:23.711Z,7.45
2023-04-29T22:45:52.578Z,6.95
2023-04-29T22:48:19.673Z,7.22
2023-04-29T22:50:52.337Z,7.25
2023-04-29T22:53:20.268Z,7.03
2023-04-29T22:55:54.691Z,7.38
2023-04-29T22:58:22.283Z,6.85
2023-04-29T23:00:54.640Z,7.10
2023-04-29T23:03:21.597Z,6.80
2023-04-29T23:05:48.589Z,7.13
2023-04-29T23:08:15.471Z,6.90
2023-04-29T23:10:46.655Z,6.85
2023-04-29T23:13:13.527Z,6.65
2023-04-29T23:15:41.204Z,6.32
2023-04-29T23:18:08.340Z,6.95
2023-04-29T23:20:35.265Z,6.60
2023-04-29T23:23:02.105Z,6.32
2023-04-29T23:25:28.962Z,6.40
2023-04-29T23:27:58.841Z,6.60
2023-04-29T23:30:25.827Z,6.63
2023-04-29T23:32:52.743Z,7.03
2023-04-29T23:35:19.713Z,7.03
2023-04-29T23:37:46.618Z,7.30
2023-04-29T23:40:13.570Z,6.78
2023-04-29T23:42:40.481Z,6.82
2023-04-29T23:45:08.530Z,7.30
2023-04-29T23:47:35.879Z,6.80
2023-04-29T23:50:04.230Z,7.50
2023-04-29T23:52:31.173Z,6.95
2023-04-29T23:54:58.180Z,7.20
2023-04-29T23:57:25.234Z,7.43
2023-04-29T23:59:53.279Z,6.68
